Wardeh — ODUS — position and weather

sailwx.info

Track history (hours):
 
Tides and Currents Weather Stations Pressure Air Temp Water Temp Dewpoint Dewpoint Depression Visibility Wind Speed Wind Dir Waves Ship Positions

Wardeh

Last reported at 2016-Jan-18 00:33 UTC. Time now 2016-Feb-10 15:16 UTC.
Position N 37°48' E 025°39'.
Warning: this ship's position is 23 days out of date.

; draft 7 m.

Type: Cargo ship. MMSI: 450522000.

Date/timePositionNaut miles runAvg speedWind from/ knotsBaromVisibWave heightAir tempDewpointWater temp
2016-Jan-18 00:33N 37°48' E 025°39'1312.6
2016-Jan-17 23:33N 37°39' E 025°28'1212.1
2016-Jan-17 22:33N 37°30' E 025°17'1212.0
2016-Jan-17 21:33N 37°24' E 025°04'1212.3
2016-Jan-17 20:33N 37°16' E 024°53'50011.9
2016-Jan-16 02:33N 36°41' E 014°28'1312.8
2016-Jan-16 01:33N 36°45' E 014°12'1212.3
2016-Jan-16 00:33N 36°48' E 013°57'1212.2
2016-Jan-15 23:33N 36°50' E 013°42'  
2016-Jan-12 08:26N 35°59' W 005°11'1516.6
2016-Jan-12 07:33N 35°57' W 005°29'64213.1
2016-Jan-10 06:27N 28°33' W 014°38'1212.9
2016-Jan-10 05:33N 28°24' W 014°46'1212.5
2016-Jan-10 04:33N 28°13' W 014°53'1212.3
2016-Jan-10 03:33N 28°01' W 014°57'1212.3
2016-Jan-10 02:33N 27°50' W 015°02'1312.7
2016-Jan-10 01:33N 27°38' W 015°09'  
Track history (hours):
 
Tides and Currents Weather Stations Pressure Air Temp Water Temp Dewpoint Dewpoint Depression Visibility Wind Speed Wind Dir Waves Ship Positions

Wardeh

Last reported at 2016-Jan-18 00:33 UTC. Time now 2016-Feb-10 15:16 UTC.
Position N 37°48' E 025°39'.
Warning: this ship's position is 23 days out of date.

; draft 7 m.

Type: Cargo ship. MMSI: 450522000.

Date/timePositionNaut miles runAvg speedWind from/ knotsBaromVisibWave heightAir tempDewpointWater temp
2016-Jan-18 00:33N 37°48' E 025°39'1312.6
2016-Jan-17 23:33N 37°39' E 025°28'1212.1
2016-Jan-17 22:33N 37°30' E 025°17'1212.0
2016-Jan-17 21:33N 37°24' E 025°04'1212.3
2016-Jan-17 20:33N 37°16' E 024°53'50011.9
2016-Jan-16 02:33N 36°41' E 014°28'1312.8
2016-Jan-16 01:33N 36°45' E 014°12'1212.3
2016-Jan-16 00:33N 36°48' E 013°57'1212.2
2016-Jan-15 23:33N 36°50' E 013°42'  
2016-Jan-12 08:26N 35°59' W 005°11'1516.6
2016-Jan-12 07:33N 35°57' W 005°29'64213.1
2016-Jan-10 06:27N 28°33' W 014°38'1212.9
2016-Jan-10 05:33N 28°24' W 014°46'1212.5
2016-Jan-10 04:33N 28°13' W 014°53'1212.3
2016-Jan-10 03:33N 28°01' W 014°57'1212.3
2016-Jan-10 02:33N 27°50' W 015°02'1312.7
2016-Jan-10 01:33N 27°38' W 015°09'  

Dump ship's entire track history